Antilla — PJJI — position and weather

sailwx.info

Track history (hours):
 
Tides and Currents Weather Stations Pressure Air Temp Water Temp Dewpoint Dewpoint Depression Visibility Wind Speed Wind Dir Waves Ship Positions

Antilla

Last reported at 2014-Sep-03 04:33 UTC. Time now 2014-Sep-03 05:01 UTC.
Position N 52°28' E 004°35'.

Length 105 m; beam 16 m.

Type: Cargo ship. MMSI: 306511000.

Date/timePositionNaut miles runAvg speedWind from/ knotsBaromVisibWave heightAir tempDewpointWater temp
2014-Sep-03 04:33N 52°28' E 004°35'0 0.0
2014-Sep-03 03:33N 52°28' E 004°35'0 0.0
2014-Sep-03 02:33N 52°28' E 004°35'0 0.0
2014-Sep-03 01:33N 52°28' E 004°35'0 0.0
2014-Sep-03 00:33N 52°28' E 004°35'0 0.0
2014-Sep-02 23:33N 52°28' E 004°35'0 0.0
2014-Sep-02 22:33N 52°28' E 004°35'0 0.0
2014-Sep-02 21:33N 52°28' E 004°35'0 0.0
2014-Sep-02 20:33N 52°28' E 004°35'0 0.0
2014-Sep-02 19:33N 52°28' E 004°35'0 0.0
2014-Sep-02 18:33N 52°28' E 004°35'0 0.0
2014-Sep-02 17:34N 52°28' E 004°35'0 0.0
2014-Sep-02 16:34N 52°28' E 004°35'0 0.0
2014-Sep-02 15:34N 52°28' E 004°35'0 0.0
2014-Sep-02 14:33N 52°28' E 004°35'0 0.0
2014-Sep-02 13:33N 52°28' E 004°35'0 0.0
2014-Sep-02 12:33N 52°28' E 004°35'0 0.0
2014-Sep-02 11:33N 52°28' E 004°35'0 0.0
2014-Sep-02 10:33N 52°28' E 004°35'0 0.0
2014-Sep-02 09:34N 52°28' E 004°35'0 0.0
2014-Sep-02 08:33N 52°28' E 004°35'0 0.0
2014-Sep-02 07:33N 52°28' E 004°35'0 0.0
2014-Sep-02 06:33N 52°28' E 004°35'0 0.0
2014-Sep-02 05:33N 52°28' E 004°35'0 0.0
2014-Sep-02 04:33N 52°28' E 004°35'0 0.0
2014-Sep-02 03:33N 52°28' E 004°35'0 0.0
2014-Sep-02 02:33N 52°28' E 004°35'0 0.0
2014-Sep-02 01:33N 52°28' E 004°35'0 0.0
2014-Sep-02 00:33N 52°28' E 004°35'0 0.0
2014-Sep-01 23:33N 52°28' E 004°35'0 0.0
2014-Sep-01 22:33N 52°28' E 004°35'0 0.0
2014-Sep-01 21:33N 52°28' E 004°35'0 0.0
2014-Sep-01 20:33N 52°28' E 004°35'0 0.0
2014-Sep-01 19:33N 52°28' E 004°35'0 0.0
2014-Sep-01 18:33N 52°28' E 004°35'0 0.2
2014-Sep-01 17:34N 52°28' E 004°35'8 7.7
2014-Sep-01 16:33N 52°28' E 004°22'5 4.9
2014-Sep-01 15:34N 52°29' E 004°14'5 5.4
2014-Sep-01 14:34N 52°28' E 004°05'5 5.2
2014-Sep-01 13:33N 52°27' E 003°57'6 6.2
2014-Sep-01 12:34N 52°26' E 003°47'5 5.3
2014-Sep-01 11:32N 52°25' E 003°39'4 3.7
2014-Sep-01 10:22N 52°21' E 003°39'9 9.6
2014-Sep-01 09:29N 52°16' E 003°27'11 8.2
2014-Sep-01 08:05N 52°10' E 003°12'5 8.6
2014-Sep-01 07:33N 52°07' E 003°07'9 8.8
2014-Sep-01 06:32N 52°00' E 002°57'1212.3
2014-Sep-01 05:33N 51°51' E 002°44'1414.2
2014-Sep-01 04:33N 51°41' E 002°29'1414.0
2014-Sep-01 03:33N 51°30' E 002°15'1413.7
2014-Sep-01 02:33N 51°17' E 002°06'1313.1
2014-Sep-01 01:33N 51°08' E 001°51'1312.8
2014-Sep-01 00:33N 50°60' E 001°36'1111.4
2014-Aug-31 23:33N 50°50' E 001°27'1111.0
2014-Aug-31 22:33N 50°39' E 001°20'1211.6
2014-Aug-31 21:33N 50°32' E 001°06'1111.5
2014-Aug-31 20:33N 50°27' E 000°50'1211.8
2014-Aug-31 19:32N 50°24' E 000°32'  
Track history (hours):
 
Tides and Currents Weather Stations Pressure Air Temp Water Temp Dewpoint Dewpoint Depression Visibility Wind Speed Wind Dir Waves Ship Positions

Antilla

Last reported at 2014-Sep-03 04:33 UTC. Time now 2014-Sep-03 05:01 UTC.
Position N 52°28' E 004°35'.

Length 105 m; beam 16 m.

Type: Cargo ship. MMSI: 306511000.

Date/timePositionNaut miles runAvg speedWind from/ knotsBaromVisibWave heightAir tempDewpointWater temp
2014-Sep-03 04:33N 52°28' E 004°35'0 0.0
2014-Sep-03 03:33N 52°28' E 004°35'0 0.0
2014-Sep-03 02:33N 52°28' E 004°35'0 0.0
2014-Sep-03 01:33N 52°28' E 004°35'0 0.0
2014-Sep-03 00:33N 52°28' E 004°35'0 0.0
2014-Sep-02 23:33N 52°28' E 004°35'0 0.0
2014-Sep-02 22:33N 52°28' E 004°35'0 0.0
2014-Sep-02 21:33N 52°28' E 004°35'0 0.0
2014-Sep-02 20:33N 52°28' E 004°35'0 0.0
2014-Sep-02 19:33N 52°28' E 004°35'0 0.0
2014-Sep-02 18:33N 52°28' E 004°35'0 0.0
2014-Sep-02 17:34N 52°28' E 004°35'0 0.0
2014-Sep-02 16:34N 52°28' E 004°35'0 0.0
2014-Sep-02 15:34N 52°28' E 004°35'0 0.0
2014-Sep-02 14:33N 52°28' E 004°35'0 0.0
2014-Sep-02 13:33N 52°28' E 004°35'0 0.0
2014-Sep-02 12:33N 52°28' E 004°35'0 0.0
2014-Sep-02 11:33N 52°28' E 004°35'0 0.0
2014-Sep-02 10:33N 52°28' E 004°35'0 0.0
2014-Sep-02 09:34N 52°28' E 004°35'0 0.0
2014-Sep-02 08:33N 52°28' E 004°35'0 0.0
2014-Sep-02 07:33N 52°28' E 004°35'0 0.0
2014-Sep-02 06:33N 52°28' E 004°35'0 0.0
2014-Sep-02 05:33N 52°28' E 004°35'0 0.0
2014-Sep-02 04:33N 52°28' E 004°35'0 0.0
2014-Sep-02 03:33N 52°28' E 004°35'0 0.0
2014-Sep-02 02:33N 52°28' E 004°35'0 0.0
2014-Sep-02 01:33N 52°28' E 004°35'0 0.0
2014-Sep-02 00:33N 52°28' E 004°35'0 0.0
2014-Sep-01 23:33N 52°28' E 004°35'0 0.0
2014-Sep-01 22:33N 52°28' E 004°35'0 0.0
2014-Sep-01 21:33N 52°28' E 004°35'0 0.0
2014-Sep-01 20:33N 52°28' E 004°35'0 0.0
2014-Sep-01 19:33N 52°28' E 004°35'0 0.0
2014-Sep-01 18:33N 52°28' E 004°35'0 0.2
2014-Sep-01 17:34N 52°28' E 004°35'8 7.7
2014-Sep-01 16:33N 52°28' E 004°22'5 4.9
2014-Sep-01 15:34N 52°29' E 004°14'5 5.4
2014-Sep-01 14:34N 52°28' E 004°05'5 5.2
2014-Sep-01 13:33N 52°27' E 003°57'6 6.2
2014-Sep-01 12:34N 52°26' E 003°47'5 5.3
2014-Sep-01 11:32N 52°25' E 003°39'4 3.7
2014-Sep-01 10:22N 52°21' E 003°39'9 9.6
2014-Sep-01 09:29N 52°16' E 003°27'11 8.2
2014-Sep-01 08:05N 52°10' E 003°12'5 8.6
2014-Sep-01 07:33N 52°07' E 003°07'9 8.8
2014-Sep-01 06:32N 52°00' E 002°57'1212.3
2014-Sep-01 05:33N 51°51' E 002°44'1414.2
2014-Sep-01 04:33N 51°41' E 002°29'1414.0
2014-Sep-01 03:33N 51°30' E 002°15'1413.7
2014-Sep-01 02:33N 51°17' E 002°06'1313.1
2014-Sep-01 01:33N 51°08' E 001°51'1312.8
2014-Sep-01 00:33N 50°60' E 001°36'1111.4
2014-Aug-31 23:33N 50°50' E 001°27'1111.0
2014-Aug-31 22:33N 50°39' E 001°20'1211.6
2014-Aug-31 21:33N 50°32' E 001°06'1111.5
2014-Aug-31 20:33N 50°27' E 000°50'1211.8
2014-Aug-31 19:32N 50°24' E 000°32'  

Dump ship's entire track history